createdAt,value
2018-03-25T00:02:08.296Z,13.93
2018-03-25T00:04:36.474Z,13.67
2018-03-25T00:07:04.651Z,13.97
2018-03-25T00:09:32.833Z,15.00
2018-03-25T00:12:01.058Z,13.97
2018-03-25T00:14:29.243Z,14.40
2018-03-25T00:16:57.525Z,15.80
2018-03-25T00:19:25.719Z,14.60
2018-03-25T00:21:54.675Z,17.40
2018-03-25T00:24:22.886Z,14.67
2018-03-25T00:26:51.094Z,15.80
2018-03-25T00:29:19.340Z,15.80
2018-03-25T00:31:47.582Z,15.90
2018-03-25T00:34:15.810Z,16.87
2018-03-25T00:36:44.009Z,15.50
2018-03-25T00:39:12.251Z,15.00
2018-03-25T00:41:40.522Z,17.40
2018-03-25T00:44:08.699Z,15.23
2018-03-25T00:46:37.039Z,16.83
2018-03-25T00:49:05.220Z,15.87
2018-03-25T00:51:34.182Z,16.20
2018-03-25T00:54:02.383Z,16.00
2018-03-25T00:56:31.371Z,16.80
2018-03-25T00:59:00.313Z,17.23
2018-03-25T01:01:28.490Z,17.50
2018-03-25T01:03:56.687Z,17.03
2018-03-25T01:06:24.970Z,17.13
2018-03-25T01:08:53.167Z,16.13
2018-03-25T01:11:22.297Z,16.07
2018-03-25T01:13:51.250Z,16.37
2018-03-25T01:16:20.207Z,16.77
2018-03-25T01:18:48.407Z,17.60
2018-03-25T01:21:17.375Z,17.23
2018-03-25T01:23:45.564Z,18.20
2018-03-25T01:26:14.561Z,16.60
2018-03-25T01:28:43.622Z,17.30
2018-03-25T01:31:11.950Z,15.80
2018-03-25T01:33:40.164Z,17.60
2018-03-25T01:36:08.346Z,17.43
2018-03-25T01:38:36.554Z,16.30
2018-03-25T01:41:05.511Z,18.50
2018-03-25T01:43:33.707Z,17.53
2018-03-25T01:46:01.895Z,17.30
2018-03-25T01:48:30.932Z,17.27
2018-03-25T01:50:59.181Z,17.70
2018-03-25T01:53:27.377Z,19.13
2018-03-25T01:55:55.608Z,17.97
2018-03-25T01:58:24.542Z,19.07
2018-03-25T02:00:52.730Z,18.60
2018-03-25T02:03:20.926Z,19.60
2018-03-25T02:05:49.205Z,18.57
2018-03-25T02:08:17.394Z,18.17
2018-03-25T02:10:46.388Z,19.20
2018-03-25T02:13:15.375Z,19.97
2018-03-25T02:15:44.454Z,20.80
2018-03-25T02:18:12.752Z,18.00
2018-03-25T02:20:41.699Z,19.50
2018-03-25T02:23:09.887Z,18.60
2018-03-25T02:25:38.089Z,20.60
2018-03-25T02:28:07.027Z,20.37
2018-03-25T02:30:35.230Z,20.20
2018-03-25T02:33:03.477Z,20.57
2018-03-25T02:35:31.639Z,19.23
2018-03-25T02:37:59.797Z,20.70
2018-03-25T02:40:27.972Z,21.63
2018-03-25T02:42:56.161Z,19.70
2018-03-25T02:45:24.403Z,23.00
2018-03-25T02:47:52.632Z,19.30
2018-03-25T02:50:20.857Z,18.73
2018-03-25T02:52:49.027Z,20.40
2018-03-25T02:55:17.291Z,20.70
2018-03-25T02:57:46.252Z,20.27
2018-03-25T03:00:14.430Z,20.90
2018-03-25T03:02:42.599Z,20.60
2018-03-25T03:05:10.922Z,21.13
2018-03-25T03:07:39.099Z,20.63
2018-03-25T03:10:07.270Z,21.53
2018-03-25T03:12:35.440Z,22.10
2018-03-25T03:15:03.619Z,21.27
2018-03-25T03:17:31.797Z,21.30
2018-03-25T03:19:59.983Z,21.37
2018-03-25T03:22:28.164Z,22.63
2018-03-25T03:24:56.391Z,23.27
2018-03-25T03:27:25.475Z,18.80
2018-03-25T03:29:53.653Z,21.30
2018-03-25T03:32:22.607Z,21.93
2018-03-25T03:34:50.860Z,20.00
2018-03-25T03:37:19.102Z,19.97
2018-03-25T03:39:48.008Z,20.30
2018-03-25T03:42:16.206Z,20.83
2018-03-25T03:44:44.401Z,21.40
2018-03-25T03:47:12.641Z,21.57
2018-03-25T03:49:40.822Z,21.90
2018-03-25T03:52:08.999Z,19.73
2018-03-25T03:54:37.272Z,20.70
2018-03-25T03:57:06.168Z,22.40
2018-03-25T03:59:34.349Z,19.40
2018-03-25T04:02:02.530Z,22.40
2018-03-25T04:04:30.771Z,20.77
2018-03-25T04:06:58.963Z,21.83
2018-03-25T04:09:27.212Z,22.30
2018-03-25T04:11:55.413Z,21.90
2018-03-25T04:14:23.622Z,21.20
2018-03-25T04:16:51.814Z,22.17
2018-03-25T04:19:20.752Z,23.10
2018-03-25T04:21:48.954Z,20.97
2018-03-25T04:24:17.144Z,21.43
2018-03-25T04:26:46.082Z,21.27
2018-03-25T04:29:14.413Z,22.00
2018-03-25T04:31:42.603Z,22.10
2018-03-25T04:34:10.825Z,22.73
2018-03-25T04:36:39.019Z,23.27
2018-03-25T04:39:07.211Z,22.03
2018-03-25T04:41:36.154Z,23.43
2018-03-25T04:44:04.338Z,24.53
2018-03-25T04:46:32.562Z,24.33
2018-03-25T04:49:00.769Z,24.80
2018-03-25T04:51:28.933Z,23.80
2018-03-25T04:53:57.154Z,24.03
2018-03-25T04:56:25.337Z,24.70
2018-03-25T04:58:54.307Z,23.57
2018-03-25T05:01:22.480Z,24.77
2018-03-25T05:03:50.828Z,23.77
2018-03-25T05:06:19.062Z,26.63
2018-03-25T05:08:48.045Z,25.00
2018-03-25T05:11:17.006Z,24.60
2018-03-25T05:13:45.222Z,27.30
2018-03-25T05:16:14.237Z,24.23
2018-03-25T05:18:42.463Z,25.07
2018-03-25T05:21:10.708Z,26.53
2018-03-25T05:23:38.888Z,27.20
2018-03-25T05:26:07.079Z,27.17
2018-03-25T05:28:35.319Z,25.10
2018-03-25T05:31:03.624Z,27.10
2018-03-25T05:33:32.026Z,26.37
2018-03-25T05:36:01.062Z,26.10
2018-03-25T05:38:29.243Z,27.20
2018-03-25T05:40:57.550Z,24.93
2018-03-25T05:43:25.728Z,27.83
2018-03-25T05:45:53.950Z,26.87
2018-03-25T05:48:22.154Z,26.90
2018-03-25T05:50:50.411Z,27.47
2018-03-25T05:53:18.681Z,26.53
2018-03-25T05:55:46.877Z,29.80
2018-03-25T05:58:15.887Z,28.23
2018-03-25T06:00:44.061Z,27.10
2018-03-25T06:03:12.291Z,27.80
2018-03-25T06:05:40.485Z,28.20
2018-03-25T06:08:08.721Z,30.23
2018-03-25T06:10:37.640Z,29.47
2018-03-25T06:13:05.835Z,30.37
2018-03-25T06:15:34.012Z,31.53
2018-03-25T06:18:02.208Z,30.67
2018-03-25T06:20:30.476Z,30.83
2018-03-25T06:22:58.641Z,31.30
2018-03-25T06:25:26.844Z,30.90
2018-03-25T06:27:55.838Z,31.07
2018-03-25T06:30:24.864Z,31.80
2018-03-25T06:32:53.085Z,33.07
2018-03-25T06:35:22.041Z,31.17
2018-03-25T06:37:50.210Z,31.87
2018-03-25T06:40:18.412Z,32.30
2018-03-25T06:42:46.587Z,30.90
2018-03-25T06:45:14.773Z,29.67
2018-03-25T06:47:43.909Z,32.60
2018-03-25T06:50:12.103Z,31.73
2018-03-25T06:52:40.283Z,33.47
2018-03-25T06:55:08.537Z,32.73
2018-03-25T06:57:36.802Z,33.17
2018-03-25T07:00:05.046Z,31.30
2018-03-25T07:02:33.345Z,33.67
2018-03-25T07:05:01.619Z,34.30
2018-03-25T07:07:29.944Z,33.80
2018-03-25T07:09:58.130Z,31.07
2018-03-25T07:12:26.407Z,32.80
2018-03-25T07:14:54.651Z,32.50
2018-03-25T07:17:22.867Z,32.77
2018-03-25T07:19:51.905Z,31.53
2018-03-25T07:22:20.267Z,33.33
2018-03-25T07:24:48.506Z,32.40
2018-03-25T07:27:16.762Z,32.80
2018-03-25T07:29:45.027Z,34.77
2018-03-25T07:32:13.250Z,33.17
2018-03-25T07:34:42.229Z,32.27
2018-03-25T07:37:11.338Z,33.30
2018-03-25T07:39:40.327Z,33.37
2018-03-25T07:42:09.282Z,30.33
2018-03-25T07:44:37.486Z,31.80
2018-03-25T07:47:05.698Z,30.60
2018-03-25T07:49:33.941Z,29.87
2018-03-25T07:52:02.212Z,29.50
2018-03-25T07:54:30.437Z,30.90
2018-03-25T07:56:58.728Z,27.30
2018-03-25T07:59:26.995Z,29.47
2018-03-25T08:01:55.205Z,29.43
2018-03-25T08:04:23.378Z,30.17
2018-03-25T08:06:52.418Z,29.57
2018-03-25T08:09:20.645Z,30.63
2018-03-25T08:11:49.621Z,28.10
2018-03-25T08:14:17.872Z,27.40
2018-03-25T08:16:46.190Z,28.67
2018-03-25T08:19:15.136Z,27.90
2018-03-25T08:21:43.318Z,27.20
2018-03-25T08:24:11.575Z,26.73
2018-03-25T08:26:39.756Z,27.10
2018-03-25T08:29:07.931Z,26.63
2018-03-25T08:31:36.117Z,25.87
2018-03-25T08:34:04.368Z,25.67
2018-03-25T08:36:32.571Z,27.00
2018-03-25T08:39:00.778Z,24.67
2018-03-25T08:41:29.010Z,27.00
2018-03-25T08:43:57.208Z,23.27
2018-03-25T08:46:25.537Z,25.20
2018-03-25T08:48:53.749Z,23.33
2018-03-25T08:51:21.975Z,24.60
2018-03-25T08:53:50.348Z,24.83
2018-03-25T08:56:18.545Z,23.93
2018-03-25T08:58:46.835Z,24.50
2018-03-25T09:01:15.105Z,23.30
2018-03-25T09:03:43.353Z,23.27
2018-03-25T09:06:11.561Z,21.10
2018-03-25T09:08:39.797Z,22.10
2018-03-25T09:11:08.012Z,22.20
2018-03-25T09:13:36.241Z,22.53
2018-03-25T09:16:04.466Z,21.30
2018-03-25T09:18:32.678Z,21.17
2018-03-25T09:21:00.876Z,23.30
2018-03-25T09:23:29.126Z,21.67
2018-03-25T09:25:57.488Z,22.37
2018-03-25T09:28:26.627Z,21.67
2018-03-25T09:30:54.856Z,21.77
2018-03-25T09:33:24.079Z,20.50
2018-03-25T09:35:52.286Z,21.33
2018-03-25T09:38:20.474Z,20.53
2018-03-25T09:40:48.774Z,18.70
2018-03-25T09:43:17.457Z,19.10
2018-03-25T09:45:46.486Z,19.50
2018-03-25T09:48:14.985Z,20.13
2018-03-25T09:50:43.296Z,20.07
2018-03-25T09:53:11.519Z,19.60
2018-03-25T09:55:39.788Z,18.07
2018-03-25T09:58:23.037Z,18.83
2018-03-25T10:03:34.218Z,16.50
2018-03-25T10:06:02.935Z,15.90
2018-03-25T10:08:31.276Z,15.40
2018-03-25T10:13:59.369Z,15.13
2018-03-25T10:16:41.579Z,14.53
2018-03-25T10:19:30.184Z,15.50
2018-03-25T10:22:11.583Z,14.80
2018-03-25T10:24:39.827Z,15.77
2018-03-25T10:27:09.086Z,14.13
2018-03-25T10:29:50.941Z,14.23
2018-03-25T10:32:19.972Z,13.23
2018-03-25T10:35:01.405Z,12.23
2018-03-25T10:37:29.713Z,12.30
2018-03-25T10:39:58.059Z,12.77
2018-03-25T10:45:47.739Z,14.13
2018-03-25T10:48:33.172Z,13.93
2018-03-25T10:51:01.549Z,15.00
2018-03-25T10:53:29.906Z,14.27
2018-03-25T10:55:58.086Z,13.77
2018-03-25T10:58:26.337Z,14.60
2018-03-25T11:00:55.296Z,15.40
2018-03-25T11:03:23.518Z,16.30
2018-03-25T11:05:51.747Z,15.13
2018-03-25T11:08:22.607Z,16.00
2018-03-25T11:10:51.597Z,16.13
2018-03-25T11:13:19.868Z,15.27
2018-03-25T11:15:48.088Z,15.00
2018-03-25T11:18:16.512Z,16.97
2018-03-25T11:20:46.224Z,15.33
2018-03-25T11:23:14.587Z,17.40
2018-03-25T11:25:42.803Z,15.07
2018-03-25T11:28:11.002Z,15.60
2018-03-25T11:30:39.360Z,17.70
2018-03-25T11:33:08.377Z,15.80
2018-03-25T11:35:36.587Z,16.60
2018-03-25T11:38:04.794Z,16.03
2018-03-25T11:40:33.733Z,16.50
2018-03-25T11:43:08.067Z,15.00
2018-03-25T11:45:36.416Z,15.07
2018-03-25T11:48:04.686Z,15.97
2018-03-25T11:50:32.896Z,15.40
2018-03-25T11:53:01.119Z,14.40
2018-03-25T11:55:29.309Z,15.40
2018-03-25T11:57:57.508Z,14.53
2018-03-25T12:00:25.778Z,16.37
2018-03-25T12:02:53.979Z,15.40
2018-03-25T12:05:22.300Z,17.70
2018-03-25T12:07:50.576Z,17.93
2018-03-25T12:10:18.835Z,17.70
2018-03-25T12:12:47.848Z,16.70
2018-03-25T12:15:16.070Z,18.47
2018-03-25T12:17:44.246Z,19.07
2018-03-25T12:20:12.448Z,17.63
2018-03-25T12:22:40.753Z,17.63
2018-03-25T12:25:08.991Z,16.73
2018-03-25T12:27:37.198Z,16.90
2018-03-25T12:30:05.394Z,16.60
2018-03-25T12:32:33.619Z,15.33
2018-03-25T12:35:02.738Z,16.97
2018-03-25T12:37:31.043Z,15.90
2018-03-25T12:39:59.285Z,16.40
2018-03-25T12:42:27.472Z,17.33
2018-03-25T12:44:55.686Z,15.43
2018-03-25T12:47:24.047Z,14.87
2018-03-25T12:49:52.413Z,15.47
2018-03-25T12:52:21.433Z,13.57
2018-03-25T12:54:50.410Z,14.50
2018-03-25T12:57:18.872Z,14.60
2018-03-25T12:59:47.159Z,15.50
2018-03-25T13:02:15.360Z,14.73
2018-03-25T13:04:43.615Z,14.10
2018-03-25T13:07:11.951Z,14.80
2018-03-25T13:09:41.120Z,15.10
2018-03-25T13:12:10.131Z,14.67
2018-03-25T13:14:38.381Z,13.70
2018-03-25T13:17:06.739Z,15.00
2018-03-25T13:19:35.115Z,14.33
2018-03-25T13:22:03.355Z,14.17
2018-03-25T13:24:31.612Z,15.03
2018-03-25T13:26:59.821Z,16.40
2018-03-25T13:29:28.069Z,14.50
2018-03-25T13:31:56.422Z,13.23
2018-03-25T13:34:25.546Z,14.97
2018-03-25T13:36:54.459Z,15.13
2018-03-25T13:39:22.681Z,15.90
2018-03-25T13:41:50.921Z,16.20
2018-03-25T13:44:19.130Z,15.43
2018-03-25T13:46:47.371Z,15.87
2018-03-25T13:49:15.726Z,15.33
2018-03-25T13:51:44.045Z,15.53
2018-03-25T13:54:12.322Z,16.20
2018-03-25T13:56:41.320Z,16.73
2018-03-25T13:59:10.307Z,17.17
2018-03-25T14:01:39.300Z,16.37
2018-03-25T14:04:08.284Z,16.77
2018-03-25T14:06:37.277Z,14.80
2018-03-25T14:09:06.251Z,17.50
2018-03-25T14:11:34.437Z,15.47
2018-03-25T14:14:03.454Z,15.20
2018-03-25T14:16:32.436Z,16.90
2018-03-25T14:19:01.426Z,16.53
2018-03-25T14:21:30.458Z,15.80
2018-03-25T14:23:58.696Z,17.33
2018-03-25T14:26:27.654Z,16.80
2018-03-25T14:28:55.883Z,17.47
2018-03-25T14:31:24.080Z,16.10
2018-03-25T14:33:52.275Z,17.70
2018-03-25T14:36:20.498Z,18.30
2018-03-25T14:38:48.706Z,17.10
2018-03-25T14:41:16.913Z,18.40
2018-03-25T14:43:45.125Z,16.10
2018-03-25T14:46:13.318Z,17.30
2018-03-25T14:48:41.551Z,17.30
2018-03-25T14:51:10.573Z,15.77
2018-03-25T14:53:38.808Z,16.60
2018-03-25T14:56:07.759Z,18.07
2018-03-25T14:58:35.956Z,16.00
2018-03-25T15:01:04.138Z,18.73
2018-03-25T15:03:32.336Z,19.50
2018-03-25T15:06:01.373Z,19.37
2018-03-25T15:08:29.595Z,17.67
2018-03-25T15:10:58.625Z,17.70
2018-03-25T15:13:26.840Z,19.40
2018-03-25T15:15:55.157Z,17.80
2018-03-25T15:18:23.506Z,17.93
2018-03-25T15:20:51.709Z,18.60
2018-03-25T15:23:19.916Z,18.70
2018-03-25T15:25:48.139Z,19.07
2018-03-25T15:28:17.039Z,19.93
2018-03-25T15:30:45.292Z,18.80
2018-03-25T15:33:14.322Z,19.20
2018-03-25T15:35:42.638Z,18.13
2018-03-25T15:38:11.006Z,18.47
2018-03-25T15:40:39.247Z,19.67
2018-03-25T15:43:08.176Z,17.80
2018-03-25T15:45:36.455Z,18.90
2018-03-25T15:48:04.598Z,18.57
2018-03-25T15:50:32.907Z,20.20
2018-03-25T15:53:01.133Z,18.67
2018-03-25T15:55:29.363Z,19.07
2018-03-25T15:57:57.575Z,20.50
2018-03-25T16:00:25.854Z,19.03
2018-03-25T16:02:54.082Z,20.40
2018-03-25T16:05:22.359Z,17.87
2018-03-25T16:07:50.588Z,19.20
2018-03-25T16:10:19.886Z,18.77
2018-03-25T16:12:48.383Z,17.17
2018-03-25T16:15:17.068Z,17.47
2018-03-25T16:17:45.331Z,19.00
2018-03-25T16:20:13.627Z,18.77
2018-03-25T16:22:41.872Z,18.73
2018-03-25T16:25:10.107Z,19.07
2018-03-25T16:27:38.345Z,19.33
2018-03-25T16:30:06.555Z,19.80
2018-03-25T16:32:34.787Z,18.13
2018-03-25T16:35:03.022Z,18.47
2018-03-25T16:37:32.048Z,19.20
2018-03-25T16:40:00.360Z,17.50
2018-03-25T16:42:28.543Z,20.00
2018-03-25T16:44:56.771Z,19.97
2018-03-25T16:47:24.964Z,19.37
2018-03-25T16:49:53.307Z,18.87
2018-03-25T16:52:21.845Z,19.87
2018-03-25T16:54:50.024Z,19.30
2018-03-25T16:57:18.311Z,19.60
2018-03-25T16:59:46.539Z,19.47
2018-03-25T17:02:15.514Z,19.67
2018-03-25T17:04:43.815Z,19.67
2018-03-25T17:07:12.048Z,20.30
2018-03-25T17:09:40.903Z,19.40
2018-03-25T17:12:09.132Z,19.03
2018-03-25T17:14:37.428Z,20.33
2018-03-25T17:17:05.682Z,20.57
2018-03-25T17:19:33.932Z,19.27
2018-03-25T17:22:02.874Z,19.87
2018-03-25T17:24:31.049Z,18.30
2018-03-25T17:26:59.350Z,19.43
2018-03-25T17:29:27.583Z,20.13
2018-03-25T17:31:55.858Z,20.77
2018-03-25T17:34:24.382Z,19.20
2018-03-25T17:36:52.680Z,21.60
2018-03-25T17:39:22.945Z,21.83
2018-03-25T17:41:51.385Z,19.20
2018-03-25T17:44:20.571Z,21.03
2018-03-25T17:46:49.020Z,19.93
2018-03-25T17:49:17.277Z,21.50
2018-03-25T17:51:49.254Z,21.33
2018-03-25T17:54:36.912Z,19.57
2018-03-25T17:57:05.285Z,22.10
2018-03-25T17:59:34.369Z,19.47
2018-03-25T18:02:02.681Z,23.27
2018-03-25T18:04:31.162Z,22.20
2018-03-25T18:06:59.634Z,22.93
2018-03-25T18:09:28.480Z,22.40
2018-03-25T18:11:57.510Z,21.97
2018-03-25T18:14:26.681Z,21.93
2018-03-25T18:16:54.986Z,22.87
2018-03-25T18:19:23.262Z,23.03
2018-03-25T18:21:51.456Z,22.90
2018-03-25T18:24:19.856Z,22.40
2018-03-25T18:26:48.037Z,23.33
2018-03-25T18:29:16.312Z,25.10
2018-03-25T18:31:44.516Z,24.10
2018-03-25T18:34:13.603Z,22.50
2018-03-25T18:36:41.840Z,22.40
2018-03-25T18:39:10.085Z,24.57
2018-03-25T18:41:38.410Z,21.97
2018-03-25T18:44:06.621Z,23.87
2018-03-25T18:46:35.591Z,24.97
2018-03-25T18:49:03.782Z,26.53
2018-03-25T18:51:32.816Z,23.37
2018-03-25T18:54:01.010Z,23.97
2018-03-25T18:56:30.088Z,24.43
2018-03-25T18:58:58.287Z,24.97
2018-03-25T19:01:26.483Z,24.70
2018-03-25T19:03:54.692Z,23.07
2018-03-25T19:06:22.873Z,25.33
2018-03-25T19:08:51.101Z,23.83
2018-03-25T19:11:19.364Z,26.03
2018-03-25T19:13:49.754Z,21.90
2018-03-25T19:16:18.054Z,24.67
2018-03-25T19:18:46.252Z,24.37
2018-03-25T19:21:14.477Z,26.07
2018-03-25T19:23:42.745Z,26.20
2018-03-25T19:26:10.917Z,26.77
2018-03-25T19:28:39.205Z,26.40
2018-03-25T19:31:07.402Z,27.13
2018-03-25T19:33:37.176Z,27.20
2018-03-25T19:36:05.495Z,27.37
2018-03-25T19:38:33.674Z,26.83
2018-03-25T19:41:02.128Z,26.97
2018-03-25T19:43:30.345Z,28.60
2018-03-25T19:45:59.379Z,25.80
2018-03-25T19:48:27.605Z,27.43
2018-03-25T19:50:55.815Z,28.03
2018-03-25T19:53:24.015Z,28.63
2018-03-25T19:55:52.200Z,28.80
2018-03-25T19:58:20.413Z,29.10
2018-03-25T20:00:49.361Z,27.83
2018-03-25T20:03:17.583Z,30.20
2018-03-25T20:05:45.778Z,29.73
2018-03-25T20:08:13.974Z,30.50
2018-03-25T20:10:42.201Z,29.50
2018-03-25T20:13:11.145Z,31.43
2018-03-25T20:15:39.384Z,30.50
2018-03-25T20:18:07.673Z,31.60
2018-03-25T20:20:35.896Z,30.57
2018-03-25T20:23:04.086Z,34.47
2018-03-25T20:25:33.035Z,33.40
2018-03-25T20:28:01.240Z,32.40
2018-03-25T20:30:29.429Z,37.80
2018-03-25T20:32:58.387Z,33.70
2018-03-25T20:35:26.638Z,34.83
2018-03-25T20:37:54.866Z,37.60
2018-03-25T20:40:23.211Z,38.80
2018-03-25T20:42:51.492Z,37.00
2018-03-25T20:45:19.898Z,39.07
2018-03-25T20:47:48.867Z,38.57
2018-03-25T20:50:17.071Z,39.40
2018-03-25T20:52:46.122Z,38.87
2018-03-25T20:55:15.133Z,36.73
2018-03-25T20:57:43.315Z,38.70
2018-03-25T21:00:12.326Z,38.40
2018-03-25T21:02:40.506Z,40.07
2018-03-25T21:05:08.876Z,41.97
2018-03-25T21:07:37.115Z,40.67
2018-03-25T21:10:05.580Z,42.40
2018-03-25T21:12:33.775Z,44.13
2018-03-25T21:15:02.076Z,40.00
2018-03-25T21:17:30.350Z,42.97
2018-03-25T21:19:59.344Z,42.10
2018-03-25T21:22:27.554Z,43.13
2018-03-25T21:24:55.760Z,42.77
2018-03-25T21:27:24.738Z,43.87
2018-03-25T21:29:52.970Z,45.43
2018-03-25T21:32:21.176Z,44.97
2018-03-25T21:34:49.425Z,42.40
2018-03-25T21:37:17.646Z,44.43
2018-03-25T21:39:45.845Z,45.37
2018-03-25T21:42:14.882Z,46.73
2018-03-25T21:44:43.077Z,45.00
2018-03-25T21:47:11.288Z,45.63
2018-03-25T21:49:42.857Z,45.57
2018-03-25T21:52:11.095Z,46.03
2018-03-25T21:54:39.371Z,46.63
2018-03-25T21:57:07.584Z,45.10
2018-03-25T21:59:37.295Z,46.93
2018-03-25T22:02:05.604Z,47.83
2018-03-25T22:04:33.795Z,47.77
2018-03-25T22:07:02.820Z,46.57
2018-03-25T22:09:31.047Z,46.57
2018-03-25T22:11:59.422Z,44.47
2018-03-25T22:14:27.629Z,46.20
2018-03-25T22:16:56.713Z,40.47
2018-03-25T22:19:24.965Z,44.73
2018-03-25T22:21:53.195Z,42.57
2018-03-25T22:24:21.412Z,46.60
2018-03-25T22:26:49.576Z,45.90
2018-03-25T22:29:18.543Z,43.20
2018-03-25T22:31:46.715Z,43.90
2018-03-25T22:34:14.899Z,42.30
2018-03-25T22:36:43.119Z,46.30
2018-03-25T22:39:11.328Z,40.80
2018-03-25T22:41:39.525Z,43.67
2018-03-25T22:44:07.794Z,43.33
2018-03-25T22:46:36.042Z,42.10
2018-03-25T22:49:05.051Z,41.30
2018-03-25T22:51:33.335Z,40.90
2018-03-25T22:54:01.564Z,38.60
2018-03-25T22:56:30.533Z,41.13
2018-03-25T22:58:58.791Z,40.43
2018-03-25T23:01:27.487Z,39.67
2018-03-25T23:03:55.671Z,41.90
2018-03-25T23:06:23.951Z,41.13
2018-03-25T23:08:52.143Z,38.30
2018-03-25T23:11:21.169Z,42.00
2018-03-25T23:13:49.451Z,43.97
2018-03-25T23:16:17.676Z,41.67
2018-03-25T23:18:45.904Z,41.87
2018-03-25T23:21:14.183Z,42.80
2018-03-25T23:23:42.419Z,43.83
2018-03-25T23:26:11.383Z,45.10
2018-03-25T23:28:39.578Z,46.63
2018-03-25T23:31:08.566Z,49.13
2018-03-25T23:33:37.533Z,43.80
2018-03-25T23:36:05.709Z,45.33
2018-03-25T23:38:33.902Z,46.80
2018-03-25T23:41:02.988Z,45.03
2018-03-25T23:43:31.271Z,43.60
2018-03-25T23:45:59.483Z,47.20
2018-03-25T23:48:27.817Z,46.50
2018-03-25T23:50:56.032Z,46.90
2018-03-25T23:53:24.219Z,46.30
2018-03-25T23:55:52.547Z,45.67
2018-03-25T23:58:20.752Z,51.00
